Terminal Aerodrome Forecast
Issued by NWS Sterling, VA

Home | Current Version | Previous Version | Text Only | Print | Product List | Glossary On
Versions: 1 2 3 4 5 6 7 8 9 10 11 12 13 14 15 16 17 18 19 20 21 22
000
FTUS41 KLWX 250500
TAFMRB
TAF
KMRB 250537Z 2506/2606 28013G20KT P6SM OVC040
     FM251200 27010KT P6SM SCT250
     FM251500 29013G21KT P6SM BKN035
     FM251800 28015G24KT P6SM SCT035
     FM252100 28012KT P6SM FEW250
     FM260000 28007KT P6SM FEW250
     FM260500 VRB03KT P6SM SKC=

USA.gov is the U.S. government's official web portal to all federal, state and local government web resources and services.